TRA45G LFBE-LFMN
Flight info
| Callsign | TRA45G |
|---|---|
| Flight time | 0h 54m |
| Altitude | 27000 |
| Route | LACOU G39 AFRIC/N0444F330 DCT ABDIL |
| Aircraft | A321/M-SDE3FGHIRWY/LB1 |
Departure
| Time | 2026-05-05 17:58 |
|---|---|
| Airport | Bergerac Dordogne-Périgord airport (LFBE) |
Arrival
| Time | 2026-05-05 18:53 |
|---|---|
| Airport | Nice-Côte d'Azur Airport (LFMN) |
| Time | Latitude | Longitude | Altitude | Speed | Heading |
|---|---|---|---|---|---|
| 2026-05-05 17:39 | 44.82272 | 0.51549 | 177 ft | 0 kts | 298° |
| 2026-05-05 17:52 | 44.82274 | 0.51547 | 177 ft | 1 kts | 306° |
| 2026-05-05 17:53 | 44.82279 | 0.51546 | 177 ft | 0 kts | 346° |
| 2026-05-05 17:53 | 44.82287 | 0.51550 | 177 ft | 2 kts | 18° |
| 2026-05-05 17:53 | 44.82300 | 0.51568 | 177 ft | 2 kts | 62° |
| 2026-05-05 17:53 | 44.82302 | 0.51585 | 177 ft | 3 kts | 79° |
| 2026-05-05 17:54 | 44.82303 | 0.51619 | 177 ft | 5 kts | 91° |
| 2026-05-05 17:54 | 44.82301 | 0.51676 | 177 ft | 7 kts | 95° |
| 2026-05-05 17:54 | 44.82295 | 0.51759 | 177 ft | 10 kts | 95° |
| 2026-05-05 17:54 | 44.82290 | 0.51872 | 177 ft | 13 kts | 93° |
| 2026-05-05 17:55 | 44.82285 | 0.51997 | 176 ft | 11 kts | 88° |
| 2026-05-05 17:55 | 44.82355 | 0.52041 | 175 ft | 13 kts | 5° |
| 2026-05-05 17:55 | 44.82434 | 0.52067 | 175 ft | 11 kts | 49° |
| 2026-05-05 17:55 | 44.82434 | 0.52190 | 174 ft | 15 kts | 94° |
| 2026-05-05 17:56 | 44.82426 | 0.52350 | 174 ft | 18 kts | 94° |
| 2026-05-05 17:56 | 44.82416 | 0.52543 | 172 ft | 22 kts | 94° |
| 2026-05-05 17:56 | 44.82404 | 0.52762 | 171 ft | 22 kts | 94° |
| 2026-05-05 17:56 | 44.82394 | 0.52969 | 170 ft | 20 kts | 94° |
| 2026-05-05 17:57 | 44.82397 | 0.53125 | 170 ft | 15 kts | 83° |
| 2026-05-05 17:57 | 44.82414 | 0.53224 | 170 ft | 7 kts | 81° |
| 2026-05-05 17:57 | 44.82381 | 0.53238 | 170 ft | 5 kts | 223° |
| 2026-05-05 17:57 | 44.82382 | 0.53184 | 170 ft | 8 kts | 275° |
| 2026-05-05 17:58 | 44.82403 | 0.52770 | 171 ft | 81 kts | 275° |
| 2026-05-05 17:58 | 44.82461 | 0.51644 | 178 ft | 147 kts | 274° |
| 2026-05-05 17:58 | 44.82534 | 0.50079 | 637 ft | 164 kts | 272° |
| 2026-05-05 17:58 | 44.82617 | 0.48475 | 1526 ft | 166 kts | 274° |
| 2026-05-05 17:59 | 44.82725 | 0.46793 | 2041 ft | 184 kts | 276° |
| 2026-05-05 17:59 | 44.82845 | 0.44917 | 2500 ft | 203 kts | 274° |
| 2026-05-05 17:59 | 44.82950 | 0.42802 | 2935 ft | 229 kts | 274° |
| 2026-05-05 17:59 | 44.82816 | 0.40483 | 3431 ft | 250 kts | 249° |
| 2026-05-05 18:00 | 44.81707 | 0.38568 | 4149 ft | 262 kts | 214° |
| 2026-05-05 18:00 | 44.79951 | 0.37842 | 5007 ft | 270 kts | 181° |
| 2026-05-05 18:00 | 44.78130 | 0.38508 | 5884 ft | 276 kts | 154° |
| 2026-05-05 18:00 | 44.76449 | 0.39844 | 6740 ft | 278 kts | 152° |
| 2026-05-05 18:01 | 44.74756 | 0.41192 | 7573 ft | 281 kts | 153° |
| 2026-05-05 18:01 | 44.73034 | 0.42519 | 8388 ft | 284 kts | 154° |
| 2026-05-05 18:01 | 44.71240 | 0.43718 | 9180 ft | 288 kts | 159° |
| 2026-05-05 18:01 | 44.69368 | 0.44780 | 9770 ft | 292 kts | 161° |
| 2026-05-05 18:02 | 44.67451 | 0.45750 | 10288 ft | 297 kts | 163° |
| 2026-05-05 18:02 | 44.65387 | 0.46593 | 10502 ft | 319 kts | 171° |
| 2026-05-05 18:02 | 44.63129 | 0.47145 | 10650 ft | 342 kts | 167° |
| 2026-05-05 18:02 | 44.60918 | 0.48601 | 10955 ft | 361 kts | 144° |
| 2026-05-05 18:03 | 44.59055 | 0.50943 | 11549 ft | 367 kts | 138° |
| 2026-05-05 18:03 | 44.57204 | 0.53420 | 12242 ft | 370 kts | 137° |
| 2026-05-05 18:03 | 44.55342 | 0.55943 | 12942 ft | 373 kts | 137° |
| 2026-05-05 18:03 | 44.53472 | 0.58491 | 13626 ft | 377 kts | 137° |
| 2026-05-05 18:04 | 44.51579 | 0.61068 | 14244 ft | 380 kts | 137° |
| 2026-05-05 18:04 | 44.49677 | 0.63647 | 14876 ft | 382 kts | 138° |
| 2026-05-05 18:04 | 44.47756 | 0.66238 | 15513 ft | 385 kts | 138° |
| 2026-05-05 18:04 | 44.45821 | 0.68837 | 16157 ft | 387 kts | 138° |
| 2026-05-05 18:05 | 44.43873 | 0.71453 | 16792 ft | 389 kts | 138° |
| 2026-05-05 18:05 | 44.41914 | 0.74085 | 17408 ft | 392 kts | 139° |
| 2026-05-05 18:05 | 44.39942 | 0.76729 | 18008 ft | 394 kts | 139° |
| 2026-05-05 18:05 | 44.37959 | 0.79385 | 18563 ft | 396 kts | 139° |
| 2026-05-05 18:06 | 44.35960 | 0.82055 | 19082 ft | 398 kts | 139° |
| 2026-05-05 18:06 | 44.34634 | 0.83824 | 19430 ft | 399 kts | 139° |
| 2026-05-05 18:06 | 44.31939 | 0.87413 | 20156 ft | 401 kts | 139° |
| 2026-05-05 18:06 | 44.30036 | 0.90289 | 20671 ft | 407 kts | 130° |
| 2026-05-05 18:07 | 44.28508 | 0.93577 | 21175 ft | 413 kts | 121° |
| 2026-05-05 18:07 | 44.27202 | 0.97156 | 21680 ft | 415 kts | 120° |
| 2026-05-05 18:07 | 44.25889 | 1.00754 | 22195 ft | 418 kts | 120° |
| 2026-05-05 18:07 | 44.24562 | 1.04375 | 22691 ft | 420 kts | 120° |
| 2026-05-05 18:08 | 44.23225 | 1.08009 | 23181 ft | 422 kts | 121° |
| 2026-05-05 18:08 | 44.21873 | 1.11665 | 23638 ft | 425 kts | 121° |
| 2026-05-05 18:08 | 44.20512 | 1.15336 | 24028 ft | 427 kts | 121° |
| 2026-05-05 18:08 | 44.19144 | 1.19025 | 24413 ft | 430 kts | 121° |
| 2026-05-05 18:09 | 44.17764 | 1.22742 | 24792 ft | 433 kts | 121° |
| 2026-05-05 18:09 | 44.16378 | 1.26475 | 25166 ft | 435 kts | 121° |
| 2026-05-05 18:09 | 44.14981 | 1.30230 | 25541 ft | 438 kts | 121° |
| 2026-05-05 18:09 | 44.13573 | 1.34016 | 25907 ft | 441 kts | 121° |
| 2026-05-05 18:10 | 44.12156 | 1.37824 | 26277 ft | 443 kts | 121° |
| 2026-05-05 18:10 | 44.10742 | 1.41622 | 26639 ft | 446 kts | 121° |
| 2026-05-05 18:10 | 44.09309 | 1.45465 | 26981 ft | 449 kts | 121° |
| 2026-05-05 18:10 | 44.07865 | 1.49329 | 27323 ft | 451 kts | 121° |
| 2026-05-05 18:11 | 44.06409 | 1.53216 | 27643 ft | 454 kts | 121° |
| 2026-05-05 18:11 | 44.04964 | 1.57064 | 27943 ft | 457 kts | 121° |
| 2026-05-05 18:11 | 44.03472 | 1.61028 | 28236 ft | 459 kts | 121° |
| 2026-05-05 18:11 | 44.01988 | 1.64970 | 28510 ft | 462 kts | 121° |
| 2026-05-05 18:12 | 44.00514 | 1.68887 | 28766 ft | 464 kts | 121° |
| 2026-05-05 18:12 | 43.99014 | 1.72863 | 29129 ft | 464 kts | 121° |
| 2026-05-05 18:12 | 43.97514 | 1.76833 | 29517 ft | 464 kts | 122° |
| 2026-05-05 18:12 | 43.96056 | 1.80844 | 29876 ft | 466 kts | 117° |
| 2026-05-05 18:13 | 43.94975 | 1.85105 | 30195 ft | 471 kts | 108° |
| 2026-05-05 18:13 | 43.94232 | 1.89570 | 30489 ft | 473 kts | 107° |
| 2026-05-05 18:13 | 43.93506 | 1.94030 | 30784 ft | 473 kts | 107° |
| 2026-05-05 18:13 | 43.92776 | 1.98483 | 30943 ft | 473 kts | 107° |
| 2026-05-05 18:14 | 43.92048 | 2.02904 | 30972 ft | 466 kts | 107° |
| 2026-05-05 18:14 | 43.90606 | 2.11572 | 30978 ft | 463 kts | 107° |
| 2026-05-05 18:15 | 43.89150 | 2.20269 | 30981 ft | 463 kts | 108° |
| 2026-05-05 18:15 | 43.87692 | 2.28970 | 30984 ft | 463 kts | 108° |
| 2026-05-05 18:16 | 43.86226 | 2.37661 | 30983 ft | 463 kts | 108° |
| 2026-05-05 18:16 | 43.84759 | 2.46349 | 30976 ft | 463 kts | 108° |
| 2026-05-05 18:17 | 43.83281 | 2.55024 | 30965 ft | 463 kts | 109° |
| 2026-05-05 18:17 | 43.81764 | 2.63685 | 30955 ft | 463 kts | 110° |
| 2026-05-05 18:18 | 43.80158 | 2.72316 | 30950 ft | 463 kts | 110° |
| 2026-05-05 18:18 | 43.78537 | 2.80930 | 30941 ft | 464 kts | 108° |
| 2026-05-05 18:19 | 43.78096 | 2.89955 | 30934 ft | 479 kts | 89° |
| 2026-05-05 18:19 | 43.79422 | 2.99085 | 30926 ft | 486 kts | 82° |
| 2026-05-05 18:20 | 43.80916 | 3.08198 | 30923 ft | 486 kts | 82° |
| 2026-05-05 18:20 | 43.82387 | 3.17345 | 30925 ft | 487 kts | 82° |
| 2026-05-05 18:21 | 43.83862 | 3.26524 | 30919 ft | 488 kts | 82° |
| 2026-05-05 18:21 | 43.85337 | 3.35691 | 30915 ft | 489 kts | 82° |
| 2026-05-05 18:22 | 43.86803 | 3.44827 | 30912 ft | 490 kts | 83° |
| 2026-05-05 18:22 | 43.88268 | 3.54070 | 30915 ft | 490 kts | 83° |
| 2026-05-05 18:23 | 43.89727 | 3.63316 | 30903 ft | 492 kts | 83° |
| 2026-05-05 18:23 | 43.91184 | 3.72589 | 30899 ft | 493 kts | 83° |
| 2026-05-05 18:24 | 43.92637 | 3.81888 | 30891 ft | 494 kts | 83° |
| 2026-05-05 18:24 | 43.94083 | 3.91202 | 30898 ft | 495 kts | 83° |
| 2026-05-05 18:25 | 43.95280 | 3.98969 | 30891 ft | 495 kts | 83° |
| 2026-05-05 18:25 | 43.96718 | 4.08340 | 30899 ft | 496 kts | 83° |
| 2026-05-05 18:26 | 43.98158 | 4.17722 | 30898 ft | 497 kts | 83° |
| 2026-05-05 18:26 | 43.99587 | 4.27123 | 30895 ft | 498 kts | 83° |
| 2026-05-05 18:27 | 44.01008 | 4.36552 | 30897 ft | 498 kts | 83° |
| 2026-05-05 18:27 | 44.02426 | 4.45984 | 30896 ft | 499 kts | 83° |
| 2026-05-05 18:28 | 44.04533 | 4.60088 | 30897 ft | 499 kts | 83° |
| 2026-05-05 18:28 | 44.05940 | 4.69676 | 30912 ft | 510 kts | 83° |
| 2026-05-05 18:29 | 44.07362 | 4.79349 | 30914 ft | 511 kts | 83° |
| 2026-05-05 18:29 | 44.08780 | 4.89033 | 30914 ft | 511 kts | 83° |
| 2026-05-05 18:30 | 44.10183 | 4.98717 | 30915 ft | 510 kts | 83° |
| 2026-05-05 18:30 | 44.11577 | 5.08396 | 30913 ft | 510 kts | 83° |
| 2026-05-05 18:31 | 44.12966 | 5.18079 | 30919 ft | 510 kts | 83° |
| 2026-05-05 18:31 | 44.13912 | 5.27810 | 30190 ft | 501 kts | 98° |
| 2026-05-05 18:32 | 44.13382 | 5.32546 | 28915 ft | 492 kts | 112° |
| 2026-05-05 18:32 | 44.12152 | 5.36870 | 27688 ft | 483 kts | 123° |
| 2026-05-05 18:32 | 44.10346 | 5.40749 | 26428 ft | 476 kts | 134° |
| 2026-05-05 18:32 | 44.08104 | 5.44106 | 25104 ft | 474 kts | 140° |
| 2026-05-05 18:33 | 44.05776 | 5.47344 | 24102 ft | 472 kts | 139° |
| 2026-05-05 18:33 | 44.03456 | 5.50550 | 23196 ft | 465 kts | 139° |
| 2026-05-05 18:33 | 44.01166 | 5.53697 | 22236 ft | 459 kts | 140° |
| 2026-05-05 18:33 | 43.98909 | 5.56790 | 21347 ft | 452 kts | 140° |
| 2026-05-05 18:34 | 43.96695 | 5.59815 | 20703 ft | 442 kts | 140° |
| 2026-05-05 18:34 | 43.94532 | 5.62769 | 20149 ft | 430 kts | 140° |
| 2026-05-05 18:34 | 43.92425 | 5.65643 | 19647 ft | 421 kts | 140° |
| 2026-05-05 18:34 | 43.90343 | 5.68476 | 19161 ft | 417 kts | 140° |
| 2026-05-05 18:35 | 43.88284 | 5.71277 | 18685 ft | 414 kts | 140° |
| 2026-05-05 18:35 | 43.86237 | 5.74060 | 18197 ft | 411 kts | 140° |
| 2026-05-05 18:35 | 43.84206 | 5.76822 | 17658 ft | 408 kts | 140° |
| 2026-05-05 18:35 | 43.82187 | 5.79568 | 17107 ft | 405 kts | 140° |
| 2026-05-05 18:36 | 43.80185 | 5.82288 | 16597 ft | 402 kts | 140° |
| 2026-05-05 18:36 | 43.78186 | 5.84998 | 16090 ft | 400 kts | 140° |
| 2026-05-05 18:36 | 43.76205 | 5.87683 | 15895 ft | 399 kts | 140° |
| 2026-05-05 18:36 | 43.74222 | 5.90372 | 15921 ft | 399 kts | 140° |
| 2026-05-05 18:37 | 43.72242 | 5.93051 | 15918 ft | 399 kts | 140° |
| 2026-05-05 18:37 | 43.70254 | 5.95738 | 15928 ft | 399 kts | 140° |
| 2026-05-05 18:37 | 43.68267 | 5.98424 | 15926 ft | 399 kts | 140° |
| 2026-05-05 18:37 | 43.66279 | 6.01107 | 15929 ft | 399 kts | 140° |
| 2026-05-05 18:38 | 43.64292 | 6.03778 | 15919 ft | 399 kts | 140° |
| 2026-05-05 18:38 | 43.62297 | 6.06452 | 15922 ft | 399 kts | 140° |
| 2026-05-05 18:38 | 43.60457 | 6.09278 | 15923 ft | 404 kts | 131° |
| 2026-05-05 18:38 | 43.58975 | 6.12603 | 15926 ft | 410 kts | 121° |
| 2026-05-05 18:39 | 43.57890 | 6.16264 | 15926 ft | 414 kts | 115° |
| 2026-05-05 18:39 | 43.56879 | 6.19977 | 15519 ft | 413 kts | 115° |
| 2026-05-05 18:39 | 43.55877 | 6.23636 | 15179 ft | 398 kts | 115° |
| 2026-05-05 18:39 | 43.54914 | 6.27144 | 14859 ft | 384 kts | 115° |
| 2026-05-05 18:40 | 43.53981 | 6.30534 | 14496 ft | 374 kts | 115° |
| 2026-05-05 18:40 | 43.53066 | 6.33841 | 14134 ft | 364 kts | 115° |
| 2026-05-05 18:40 | 43.52172 | 6.37060 | 13780 ft | 356 kts | 115° |
| 2026-05-05 18:40 | 43.51297 | 6.40211 | 13370 ft | 348 kts | 115° |
| 2026-05-05 18:41 | 43.50298 | 6.43185 | 12941 ft | 337 kts | 127° |
| 2026-05-05 18:41 | 43.48876 | 6.45652 | 12522 ft | 324 kts | 139° |
| 2026-05-05 18:41 | 43.47327 | 6.47872 | 12090 ft | 316 kts | 138° |
| 2026-05-05 18:41 | 43.45860 | 6.49993 | 11643 ft | 297 kts | 138° |
| 2026-05-05 18:42 | 43.44443 | 6.52042 | 11173 ft | 296 kts | 138° |
| 2026-05-05 18:42 | 43.43018 | 6.54089 | 10699 ft | 296 kts | 138° |
| 2026-05-05 18:42 | 43.41591 | 6.56135 | 10243 ft | 297 kts | 137° |
| 2026-05-05 18:42 | 43.40242 | 6.58291 | 9831 ft | 299 kts | 125° |
| 2026-05-05 18:43 | 43.39440 | 6.60915 | 9421 ft | 297 kts | 104° |
| 2026-05-05 18:43 | 43.39342 | 6.63673 | 9026 ft | 283 kts | 84° |
| 2026-05-05 18:43 | 43.39848 | 6.66280 | 8645 ft | 283 kts | 72° |
| 2026-05-05 18:43 | 43.40486 | 6.68839 | 8261 ft | 283 kts | 72° |
| 2026-05-05 18:44 | 43.41120 | 6.71394 | 7897 ft | 282 kts | 72° |
| 2026-05-05 18:44 | 43.41748 | 6.73940 | 7523 ft | 281 kts | 72° |
| 2026-05-05 18:44 | 43.42370 | 6.76484 | 7151 ft | 280 kts | 72° |
| 2026-05-05 18:44 | 43.42991 | 6.79017 | 6771 ft | 276 kts | 72° |
| 2026-05-05 18:45 | 43.43589 | 6.81455 | 6409 ft | 262 kts | 72° |
| 2026-05-05 18:45 | 43.44159 | 6.83778 | 6033 ft | 252 kts | 72° |
| 2026-05-05 18:45 | 43.44714 | 6.86051 | 5695 ft | 250 kts | 72° |
| 2026-05-05 18:45 | 43.45254 | 6.88272 | 5440 ft | 246 kts | 73° |
| 2026-05-05 18:46 | 43.45793 | 6.90494 | 5192 ft | 244 kts | 73° |
| 2026-05-05 18:46 | 43.46327 | 6.92694 | 4940 ft | 241 kts | 73° |
| 2026-05-05 18:46 | 43.46887 | 6.94870 | 4679 ft | 236 kts | 65° |
| 2026-05-05 18:46 | 43.47811 | 6.96650 | 4461 ft | 229 kts | 46° |
| 2026-05-05 18:47 | 43.48928 | 6.98167 | 4204 ft | 222 kts | 45° |
| 2026-05-05 18:47 | 43.50001 | 6.99623 | 4040 ft | 208 kts | 45° |
| 2026-05-05 18:47 | 43.50989 | 7.00969 | 3909 ft | 193 kts | 45° |
| 2026-05-05 18:47 | 43.51926 | 7.02248 | 3682 ft | 186 kts | 45° |
| 2026-05-05 18:48 | 43.52829 | 7.03482 | 3454 ft | 180 kts | 45° |
| 2026-05-05 18:48 | 43.53711 | 7.04687 | 3222 ft | 176 kts | 45° |
| 2026-05-05 18:48 | 43.54571 | 7.05862 | 2978 ft | 172 kts | 45° |
| 2026-05-05 18:48 | 43.55409 | 7.07007 | 2763 ft | 168 kts | 45° |
| 2026-05-05 18:49 | 43.56229 | 7.08129 | 2539 ft | 164 kts | 45° |
| 2026-05-05 18:49 | 43.57032 | 7.09228 | 2318 ft | 161 kts | 45° |
| 2026-05-05 18:49 | 43.57821 | 7.10307 | 2103 ft | 158 kts | 45° |
| 2026-05-05 18:49 | 43.58589 | 7.11359 | 1912 ft | 152 kts | 45° |
| 2026-05-05 18:50 | 43.59335 | 7.12382 | 1695 ft | 149 kts | 45° |
| 2026-05-05 18:50 | 43.60047 | 7.13357 | 1486 ft | 141 kts | 45° |
| 2026-05-05 18:50 | 43.60733 | 7.14298 | 1302 ft | 137 kts | 46° |
| 2026-05-05 18:50 | 43.61407 | 7.15222 | 1109 ft | 136 kts | 47° |
| 2026-05-05 18:51 | 43.62071 | 7.16132 | 934 ft | 133 kts | 47° |
| 2026-05-05 18:51 | 43.62727 | 7.17032 | 773 ft | 132 kts | 47° |
| 2026-05-05 18:51 | 43.63379 | 7.17929 | 605 ft | 132 kts | 47° |
| 2026-05-05 18:51 | 43.64014 | 7.18811 | 398 ft | 132 kts | 47° |
| 2026-05-05 18:52 | 43.64677 | 7.19709 | 252 ft | 131 kts | 47° |
| 2026-05-05 18:52 | 43.65316 | 7.20583 | 84 ft | 131 kts | 49° |
| 2026-05-05 18:52 | 43.65917 | 7.21422 | 27 ft | 113 kts | 46° |
| 2026-05-05 18:52 | 43.66401 | 7.22086 | 23 ft | 81 kts | 45° |
| 2026-05-05 18:53 | 43.66683 | 7.22470 | 21 ft | 16 kts | 43° |
| 2026-05-05 18:53 | 43.66777 | 7.22445 | 21 ft | 13 kts | 315° |
| 2026-05-05 18:53 | 43.66817 | 7.22350 | 22 ft | 12 kts | 267° |
| 2026-05-05 18:53 | 43.66763 | 7.22258 | 22 ft | 14 kts | 225° |
| 2026-05-05 18:54 | 43.66691 | 7.22158 | 22 ft | 16 kts | 224° |
| 2026-05-05 18:54 | 43.66609 | 7.22047 | 22 ft | 18 kts | 225° |
| 2026-05-05 18:54 | 43.66517 | 7.21921 | 22 ft | 20 kts | 225° |
| 2026-05-05 18:54 | 43.66416 | 7.21783 | 23 ft | 21 kts | 225° |
| 2026-05-05 18:55 | 43.66331 | 7.21666 | 22 ft | 10 kts | 224° |
| 2026-05-05 18:55 | 43.66337 | 7.21582 | 23 ft | 11 kts | 316° |
| 2026-05-05 18:55 | 43.66393 | 7.21516 | 22 ft | 9 kts | 322° |
| 2026-05-05 18:55 | 43.66431 | 7.21467 | 22 ft | 5 kts | 315° |
| 2026-05-05 18:56 | 43.66442 | 7.21451 | 22 ft | 1 kts | 314° |
| 2026-05-05 18:56 | 43.66443 | 7.21451 | 22 ft | 0 kts | 314° |